sensor_id;sensor_type;location;lat;lon;timestamp;P1;durP1;ratioP1;P2;durP2;ratioP2
58597;SDS011;60319;46.908;16.848;2022-07-23T00:01:09;6.70;;;5.45;;
58597;SDS011;60319;46.908;16.848;2022-07-23T00:06:10;5.80;;;5.28;;
58597;SDS011;60319;46.908;16.848;2022-07-23T00:11:11;6.18;;;5.57;;
58597;SDS011;60319;46.908;16.848;2022-07-23T00:16:12;6.32;;;5.82;;
58597;SDS011;60319;46.908;16.848;2022-07-23T00:21:12;6.25;;;5.70;;
58597;SDS011;60319;46.908;16.848;2022-07-23T00:26:12;6.60;;;5.82;;
58597;SDS011;60319;46.908;16.848;2022-07-23T00:31:13;5.88;;;5.32;;
58597;SDS011;60319;46.908;16.848;2022-07-23T00:36:13;6.20;;;5.70;;
58597;SDS011;60319;46.908;16.848;2022-07-23T00:41:14;5.65;;;5.25;;
58597;SDS011;60319;46.908;16.848;2022-07-23T00:46:21;6.43;;;5.88;;
58597;SDS011;60319;46.908;16.848;2022-07-23T00:51:22;7.22;;;5.82;;
58597;SDS011;60319;46.908;16.848;2022-07-23T00:56:22;6.18;;;5.60;;
58597;SDS011;60319;46.908;16.848;2022-07-23T01:01:23;5.82;;;5.32;;
58597;SDS011;60319;46.908;16.848;2022-07-23T01:06:23;6.07;;;5.63;;
58597;SDS011;60319;46.908;16.848;2022-07-23T01:11:24;6.05;;;5.15;;
58597;SDS011;60319;46.908;16.848;2022-07-23T01:16:25;5.82;;;5.32;;
58597;SDS011;60319;46.908;16.848;2022-07-23T01:21:25;6.20;;;5.60;;
58597;SDS011;60319;46.908;16.848;2022-07-23T01:26:26;6.10;;;5.60;;
58597;SDS011;60319;46.908;16.848;2022-07-23T01:31:26;5.88;;;5.38;;
58597;SDS011;60319;46.908;16.848;2022-07-23T01:36:27;6.63;;;5.60;;
58597;SDS011;60319;46.908;16.848;2022-07-23T01:41:27;6.93;;;6.20;;
58597;SDS011;60319;46.908;16.848;2022-07-23T01:46:28;6.22;;;5.70;;
58597;SDS011;60319;46.908;16.848;2022-07-23T01:51:28;6.00;;;5.60;;
58597;SDS011;60319;46.908;16.848;2022-07-23T01:56:29;6.13;;;5.63;;
58597;SDS011;60319;46.908;16.848;2022-07-23T02:01:29;6.47;;;5.80;;
58597;SDS011;60319;46.908;16.848;2022-07-23T02:06:29;6.22;;;5.72;;
58597;SDS011;60319;46.908;16.848;2022-07-23T02:11:30;5.90;;;5.40;;
58597;SDS011;60319;46.908;16.848;2022-07-23T02:16:30;6.53;;;6.03;;
58597;SDS011;60319;46.908;16.848;2022-07-23T02:21:31;8.05;;;6.05;;
58597;SDS011;60319;46.908;16.848;2022-07-23T02:26:32;5.88;;;5.43;;
58597;SDS011;60319;46.908;16.848;2022-07-23T02:31:34;6.78;;;6.18;;
58597;SDS011;60319;46.908;16.848;2022-07-23T02:36:35;6.40;;;5.82;;
58597;SDS011;60319;46.908;16.848;2022-07-23T02:41:35;6.05;;;5.55;;
58597;SDS011;60319;46.908;16.848;2022-07-23T02:46:36;5.93;;;5.25;;
58597;SDS011;60319;46.908;16.848;2022-07-23T02:51:36;6.28;;;5.63;;
58597;SDS011;60319;46.908;16.848;2022-07-23T02:56:37;6.18;;;5.57;;
58597;SDS011;60319;46.908;16.848;2022-07-23T03:01:37;5.72;;;5.32;;
58597;SDS011;60319;46.908;16.848;2022-07-23T03:06:38;5.80;;;5.30;;
58597;SDS011;60319;46.908;16.848;2022-07-23T03:11:38;7.97;;;5.60;;
58597;SDS011;60319;46.908;16.848;2022-07-23T03:16:39;6.38;;;5.78;;
58597;SDS011;60319;46.908;16.848;2022-07-23T03:21:40;5.78;;;5.25;;
58597;SDS011;60319;46.908;16.848;2022-07-23T03:26:43;5.68;;;5.28;;
58597;SDS011;60319;46.908;16.848;2022-07-23T03:31:44;6.13;;;5.57;;
58597;SDS011;60319;46.908;16.848;2022-07-23T03:36:44;7.47;;;6.00;;
58597;SDS011;60319;46.908;16.848;2022-07-23T03:41:45;6.35;;;5.85;;
58597;SDS011;60319;46.908;16.848;2022-07-23T03:46:45;5.90;;;5.50;;
58597;SDS011;60319;46.908;16.848;2022-07-23T03:51:46;6.68;;;6.07;;
58597;SDS011;60319;46.908;16.848;2022-07-23T03:56:46;6.10;;;5.50;;
58597;SDS011;60319;46.908;16.848;2022-07-23T04:01:47;6.90;;;6.20;;
58597;SDS011;60319;46.908;16.848;2022-07-23T04:06:47;6.65;;;6.15;;
58597;SDS011;60319;46.908;16.848;2022-07-23T04:11:48;6.47;;;5.82;;
58597;SDS011;60319;46.908;16.848;2022-07-23T04:16:49;6.65;;;6.13;;
58597;SDS011;60319;46.908;16.848;2022-07-23T04:21:50;6.50;;;5.88;;
58597;SDS011;60319;46.908;16.848;2022-07-23T04:26:50;6.57;;;5.97;;
58597;SDS011;60319;46.908;16.848;2022-07-23T04:31:51;6.53;;;5.72;;
58597;SDS011;60319;46.908;16.848;2022-07-23T04:36:52;6.72;;;6.13;;
58597;SDS011;60319;46.908;16.848;2022-07-23T04:41:53;6.88;;;6.15;;
58597;SDS011;60319;46.908;16.848;2022-07-23T04:46:53;6.18;;;5.60;;
58597;SDS011;60319;46.908;16.848;2022-07-23T04:51:54;6.32;;;5.75;;
58597;SDS011;60319;46.908;16.848;2022-07-23T04:56:55;6.15;;;5.53;;
58597;SDS011;60319;46.908;16.848;2022-07-23T05:01:55;6.43;;;5.82;;
58597;SDS011;60319;46.908;16.848;2022-07-23T05:06:55;6.47;;;5.88;;
58597;SDS011;60319;46.908;16.848;2022-07-23T05:11:56;7.72;;;5.22;;
58597;SDS011;60319;46.908;16.848;2022-07-23T05:16:57;5.50;;;5.07;;
58597;SDS011;60319;46.908;16.848;2022-07-23T05:21:58;5.88;;;5.35;;
58597;SDS011;60319;46.908;16.848;2022-07-23T05:26:58;5.50;;;5.00;;
58597;SDS011;60319;46.908;16.848;2022-07-23T05:31:59;6.13;;;5.63;;
58597;SDS011;60319;46.908;16.848;2022-07-23T05:37:02;6.07;;;5.55;;
58597;SDS011;60319;46.908;16.848;2022-07-23T05:42:03;5.80;;;5.30;;
58597;SDS011;60319;46.908;16.848;2022-07-23T05:47:03;6.88;;;6.30;;
58597;SDS011;60319;46.908;16.848;2022-07-23T05:52:05;5.95;;;5.45;;
58597;SDS011;60319;46.908;16.848;2022-07-23T05:57:06;6.15;;;5.55;;
58597;SDS011;60319;46.908;16.848;2022-07-23T06:02:07;6.72;;;6.13;;
58597;SDS011;60319;46.908;16.848;2022-07-23T06:07:07;6.82;;;6.20;;
58597;SDS011;60319;46.908;16.848;2022-07-23T06:12:08;7.43;;;6.82;;
58597;SDS011;60319;46.908;16.848;2022-07-23T06:17:08;6.38;;;5.78;;
58597;SDS011;60319;46.908;16.848;2022-07-23T06:22:09;5.72;;;5.22;;
58597;SDS011;60319;46.908;16.848;2022-07-23T06:27:09;5.32;;;4.82;;
58597;SDS011;60319;46.908;16.848;2022-07-23T06:32:10;5.35;;;4.85;;
58597;SDS011;60319;46.908;16.848;2022-07-23T06:37:10;5.53;;;5.03;;
58597;SDS011;60319;46.908;16.848;2022-07-23T06:42:11;5.57;;;5.13;;
58597;SDS011;60319;46.908;16.848;2022-07-23T06:47:12;6.70;;;5.20;;
58597;SDS011;60319;46.908;16.848;2022-07-23T06:52:13;5.57;;;4.95;;
58597;SDS011;60319;46.908;16.848;2022-07-23T06:57:13;5.45;;;5.05;;
58597;SDS011;60319;46.908;16.848;2022-07-23T07:02:14;5.70;;;5.20;;
58597;SDS011;60319;46.908;16.848;2022-07-23T07:07:14;5.78;;;5.18;;
58597;SDS011;60319;46.908;16.848;2022-07-23T07:12:15;8.23;;;5.93;;
58597;SDS011;60319;46.908;16.848;2022-07-23T07:17:15;5.47;;;4.97;;
58597;SDS011;60319;46.908;16.848;2022-07-23T07:22:16;6.28;;;5.68;;
58597;SDS011;60319;46.908;16.848;2022-07-23T07:27:17;5.93;;;5.40;;
58597;SDS011;60319;46.908;16.848;2022-07-23T07:32:17;6.28;;;4.95;;
58597;SDS011;60319;46.908;16.848;2022-07-23T07:37:18;5.13;;;4.63;;
58597;SDS011;60319;46.908;16.848;2022-07-23T07:42:19;8.48;;;5.47;;
58597;SDS011;60319;46.908;16.848;2022-07-23T07:47:19;5.47;;;4.97;;
58597;SDS011;60319;46.908;16.848;2022-07-23T07:52:20;5.28;;;4.80;;
58597;SDS011;60319;46.908;16.848;2022-07-23T07:57:20;6.10;;;4.95;;
58597;SDS011;60319;46.908;16.848;2022-07-23T08:02:21;7.38;;;5.90;;
58597;SDS011;60319;46.908;16.848;2022-07-23T08:07:21;6.10;;;5.57;;
58597;SDS011;60319;46.908;16.848;2022-07-23T08:12:22;6.95;;;6.18;;
58597;SDS011;60319;46.908;16.848;2022-07-23T08:17:22;10.10;;;7.18;;
58597;SDS011;60319;46.908;16.848;2022-07-23T08:22:23;9.45;;;6.95;;
58597;SDS011;60319;46.908;16.848;2022-07-23T08:27:23;9.77;;;7.05;;
58597;SDS011;60319;46.908;16.848;2022-07-23T08:32:24;7.50;;;6.80;;
58597;SDS011;60319;46.908;16.848;2022-07-23T08:37:24;10.00;;;6.95;;
58597;SDS011;60319;46.908;16.848;2022-07-23T08:42:25;10.45;;;6.68;;
58597;SDS011;60319;46.908;16.848;2022-07-23T08:47:26;7.10;;;5.93;;
58597;SDS011;60319;46.908;16.848;2022-07-23T08:52:30;7.65;;;6.57;;
58597;SDS011;60319;46.908;16.848;2022-07-23T08:57:30;6.63;;;6.07;;
58597;SDS011;60319;46.908;16.848;2022-07-23T09:02:31;6.72;;;5.95;;
58597;SDS011;60319;46.908;16.848;2022-07-23T09:07:38;6.43;;;5.93;;
58597;SDS011;60319;46.908;16.848;2022-07-23T09:13:04;6.75;;;6.15;;
58597;SDS011;60319;46.908;16.848;2022-07-23T09:18:07;6.70;;;6.15;;
58597;SDS011;60319;46.908;16.848;2022-07-23T09:23:08;6.05;;;5.55;;
58597;SDS011;60319;46.908;16.848;2022-07-23T09:28:08;7.68;;;6.53;;
58597;SDS011;60319;46.908;16.848;2022-07-23T09:33:13;6.38;;;5.78;;
58597;SDS011;60319;46.908;16.848;2022-07-23T09:38:15;6.40;;;5.90;;
58597;SDS011;60319;46.908;16.848;2022-07-23T09:43:25;5.70;;;5.20;;
58597;SDS011;60319;46.908;16.848;2022-07-23T09:48:30;6.53;;;5.93;;
58597;SDS011;60319;46.908;16.848;2022-07-23T09:53:30;5.60;;;5.20;;
58597;SDS011;60319;46.908;16.848;2022-07-23T09:58:31;6.15;;;5.55;;
58597;SDS011;60319;46.908;16.848;2022-07-23T10:03:33;6.50;;;5.88;;
58597;SDS011;60319;46.908;16.848;2022-07-23T10:08:33;6.85;;;6.15;;
58597;SDS011;60319;46.908;16.848;2022-07-23T10:13:35;6.38;;;5.78;;
58597;SDS011;60319;46.908;16.848;2022-07-23T10:18:44;6.00;;;5.50;;
58597;SDS011;60319;46.908;16.848;2022-07-23T10:23:47;7.72;;;7.03;;
58597;SDS011;60319;46.908;16.848;2022-07-23T10:29:13;8.60;;;6.95;;
58597;SDS011;60319;46.908;16.848;2022-07-23T10:40:13;7.15;;;6.55;;
58597;SDS011;60319;46.908;16.848;2022-07-23T10:45:24;8.02;;;6.40;;
58597;SDS011;60319;46.908;16.848;2022-07-23T10:50:32;7.22;;;6.47;;
58597;SDS011;60319;46.908;16.848;2022-07-23T11:00:36;7.85;;;6.65;;
58597;SDS011;60319;46.908;16.848;2022-07-23T11:05:44;8.75;;;7.82;;
58597;SDS011;60319;46.908;16.848;2022-07-23T11:10:53;8.15;;;7.45;;
58597;SDS011;60319;46.908;16.848;2022-07-23T11:31:50;10.18;;;9.27;;
58597;SDS011;60319;46.908;16.848;2022-07-23T11:36:52;10.40;;;9.18;;
58597;SDS011;60319;46.908;16.848;2022-07-23T11:41:52;9.80;;;9.00;;
58597;SDS011;60319;46.908;16.848;2022-07-23T11:47:03;10.85;;;9.38;;
58597;SDS011;60319;46.908;16.848;2022-07-23T11:52:06;11.25;;;10.25;;
58597;SDS011;60319;46.908;16.848;2022-07-23T11:57:10;10.90;;;9.90;;
58597;SDS011;60319;46.908;16.848;2022-07-23T12:02:11;10.73;;;9.82;;
58597;SDS011;60319;46.908;16.848;2022-07-23T12:12:39;10.25;;;9.35;;
58597;SDS011;60319;46.908;16.848;2022-07-23T12:17:45;12.33;;;11.23;;
58597;SDS011;60319;46.908;16.848;2022-07-23T12:22:47;12.00;;;10.88;;
58597;SDS011;60319;46.908;16.848;2022-07-23T12:33:07;11.13;;;10.13;;
58597;SDS011;60319;46.908;16.848;2022-07-23T12:38:14;11.15;;;10.30;;
58597;SDS011;60319;46.908;16.848;2022-07-23T12:58:24;15.95;;;14.52;;
58597;SDS011;60319;46.908;16.848;2022-07-23T13:03:30;13.63;;;12.38;;
58597;SDS011;60319;46.908;16.848;2022-07-23T13:08:36;14.40;;;13.15;;
58597;SDS011;60319;46.908;16.848;2022-07-23T13:13:38;13.80;;;12.65;;
58597;SDS011;60319;46.908;16.848;2022-07-23T13:18:39;13.93;;;12.60;;
58597;SDS011;60319;46.908;16.848;2022-07-23T13:23:39;12.73;;;11.73;;
58597;SDS011;60319;46.908;16.848;2022-07-23T13:28:40;12.68;;;11.57;;
58597;SDS011;60319;46.908;16.848;2022-07-23T13:33:40;12.20;;;11.20;;
58597;SDS011;60319;46.908;16.848;2022-07-23T13:38:41;12.70;;;11.68;;
58597;SDS011;60319;46.908;16.848;2022-07-23T13:43:41;13.02;;;11.88;;
58597;SDS011;60319;46.908;16.848;2022-07-23T13:48:42;13.82;;;12.73;;
58597;SDS011;60319;46.908;16.848;2022-07-23T13:53:42;13.05;;;12.05;;
58597;SDS011;60319;46.908;16.848;2022-07-23T13:58:43;12.07;;;11.00;;
58597;SDS011;60319;46.908;16.848;2022-07-23T14:03:44;12.05;;;11.02;;
58597;SDS011;60319;46.908;16.848;2022-07-23T14:08:44;11.88;;;10.93;;
58597;SDS011;60319;46.908;16.848;2022-07-23T14:13:45;11.50;;;10.50;;
58597;SDS011;60319;46.908;16.848;2022-07-23T14:18:45;12.00;;;11.07;;
58597;SDS011;60319;46.908;16.848;2022-07-23T14:23:45;18.70;;;9.65;;
58597;SDS011;60319;46.908;16.848;2022-07-23T14:28:46;10.30;;;7.53;;
58597;SDS011;60319;46.908;16.848;2022-07-23T14:33:47;8.48;;;6.43;;
58597;SDS011;60319;46.908;16.848;2022-07-23T14:38:48;7.18;;;6.03;;
58597;SDS011;60319;46.908;16.848;2022-07-23T14:43:48;8.55;;;5.97;;
58597;SDS011;60319;46.908;16.848;2022-07-23T14:48:49;9.55;;;6.20;;
58597;SDS011;60319;46.908;16.848;2022-07-23T14:53:49;8.57;;;6.82;;
58597;SDS011;60319;46.908;16.848;2022-07-23T14:58:50;7.97;;;7.13;;
58597;SDS011;60319;46.908;16.848;2022-07-23T15:03:50;8.93;;;7.00;;
58597;SDS011;60319;46.908;16.848;2022-07-23T15:08:51;8.48;;;7.50;;
58597;SDS011;60319;46.908;16.848;2022-07-23T15:13:51;8.48;;;7.63;;
58597;SDS011;60319;46.908;16.848;2022-07-23T15:18:52;9.18;;;7.90;;
58597;SDS011;60319;46.908;16.848;2022-07-23T15:23:52;8.85;;;7.60;;
58597;SDS011;60319;46.908;16.848;2022-07-23T15:28:55;9.40;;;8.60;;
58597;SDS011;60319;46.908;16.848;2022-07-23T15:33:56;9.43;;;8.63;;
58597;SDS011;60319;46.908;16.848;2022-07-23T15:38:59;11.82;;;10.82;;
58597;SDS011;60319;46.908;16.848;2022-07-23T15:44:00;13.82;;;12.60;;
58597;SDS011;60319;46.908;16.848;2022-07-23T15:49:00;14.88;;;13.48;;
58597;SDS011;60319;46.908;16.848;2022-07-23T15:54:01;15.73;;;14.23;;
58597;SDS011;60319;46.908;16.848;2022-07-23T15:59:01;15.35;;;13.93;;
58597;SDS011;60319;46.908;16.848;2022-07-23T16:04:02;14.38;;;13.18;;
58597;SDS011;60319;46.908;16.848;2022-07-23T16:09:03;13.15;;;11.90;;
58597;SDS011;60319;46.908;16.848;2022-07-23T16:14:03;14.65;;;13.40;;
58597;SDS011;60319;46.908;16.848;2022-07-23T16:19:04;12.85;;;11.75;;
58597;SDS011;60319;46.908;16.848;2022-07-23T16:24:05;12.05;;;11.05;;
58597;SDS011;60319;46.908;16.848;2022-07-23T16:29:06;12.90;;;11.88;;
58597;SDS011;60319;46.908;16.848;2022-07-23T16:34:06;12.80;;;11.80;;
58597;SDS011;60319;46.908;16.848;2022-07-23T16:39:07;12.02;;;10.93;;
58597;SDS011;60319;46.908;16.848;2022-07-23T16:44:07;11.20;;;10.20;;
58597;SDS011;60319;46.908;16.848;2022-07-23T16:49:08;10.88;;;9.98;;
58597;SDS011;60319;46.908;16.848;2022-07-23T16:54:09;10.60;;;9.80;;
58597;SDS011;60319;46.908;16.848;2022-07-23T16:59:09;10.20;;;9.20;;
58597;SDS011;60319;46.908;16.848;2022-07-23T17:04:13;10.45;;;9.50;;
58597;SDS011;60319;46.908;16.848;2022-07-23T17:09:16;9.77;;;8.95;;
58597;SDS011;60319;46.908;16.848;2022-07-23T17:14:17;11.57;;;10.57;;
58597;SDS011;60319;46.908;16.848;2022-07-23T17:19:17;11.27;;;10.18;;
58597;SDS011;60319;46.908;16.848;2022-07-23T17:24:18;11.23;;;10.20;;
58597;SDS011;60319;46.908;16.848;2022-07-23T17:29:19;12.02;;;10.90;;
58597;SDS011;60319;46.908;16.848;2022-07-23T17:34:19;10.43;;;9.52;;
58597;SDS011;60319;46.908;16.848;2022-07-23T17:39:20;10.90;;;9.88;;
58597;SDS011;60319;46.908;16.848;2022-07-23T17:44:20;10.48;;;9.57;;
58597;SDS011;60319;46.908;16.848;2022-07-23T17:49:21;10.45;;;9.65;;
58597;SDS011;60319;46.908;16.848;2022-07-23T17:54:22;10.07;;;9.18;;
58597;SDS011;60319;46.908;16.848;2022-07-23T17:59:23;9.90;;;9.10;;
58597;SDS011;60319;46.908;16.848;2022-07-23T18:04:24;10.23;;;9.43;;
58597;SDS011;60319;46.908;16.848;2022-07-23T18:09:26;10.20;;;9.40;;
58597;SDS011;60319;46.908;16.848;2022-07-23T18:14:26;9.35;;;8.65;;
58597;SDS011;60319;46.908;16.848;2022-07-23T18:19:28;9.35;;;8.38;;
58597;SDS011;60319;46.908;16.848;2022-07-23T18:24:29;10.45;;;9.48;;
58597;SDS011;60319;46.908;16.848;2022-07-23T18:29:29;9.77;;;8.98;;
58597;SDS011;60319;46.908;16.848;2022-07-23T18:34:33;10.32;;;9.43;;
58597;SDS011;60319;46.908;16.848;2022-07-23T18:39:34;10.35;;;9.50;;
58597;SDS011;60319;46.908;16.848;2022-07-23T18:44:38;9.95;;;9.15;;
58597;SDS011;60319;46.908;16.848;2022-07-23T18:49:38;9.50;;;8.68;;
58597;SDS011;60319;46.908;16.848;2022-07-23T18:54:39;9.93;;;9.02;;
58597;SDS011;60319;46.908;16.848;2022-07-23T18:59:40;10.23;;;9.35;;
58597;SDS011;60319;46.908;16.848;2022-07-23T19:04:40;9.85;;;9.07;;
58597;SDS011;60319;46.908;16.848;2022-07-23T19:09:44;11.45;;;10.35;;
58597;SDS011;60319;46.908;16.848;2022-07-23T19:14:44;9.98;;;9.07;;
58597;SDS011;60319;46.908;16.848;2022-07-23T19:19:47;8.60;;;7.90;;
58597;SDS011;60319;46.908;16.848;2022-07-23T19:24:48;9.00;;;8.30;;
58597;SDS011;60319;46.908;16.848;2022-07-23T19:29:49;9.88;;;7.85;;
58597;SDS011;60319;46.908;16.848;2022-07-23T19:34:50;10.02;;;9.13;;
58597;SDS011;60319;46.908;16.848;2022-07-23T19:39:51;9.45;;;8.70;;
58597;SDS011;60319;46.908;16.848;2022-07-23T19:44:52;9.23;;;8.32;;
58597;SDS011;60319;46.908;16.848;2022-07-23T19:49:53;8.40;;;7.70;;
58597;SDS011;60319;46.908;16.848;2022-07-23T19:54:53;8.80;;;7.82;;
58597;SDS011;60319;46.908;16.848;2022-07-23T19:59:54;7.82;;;7.03;;
58597;SDS011;60319;46.908;16.848;2022-07-23T20:04:54;7.90;;;7.30;;
58597;SDS011;60319;46.908;16.848;2022-07-23T20:09:54;8.75;;;7.95;;
58597;SDS011;60319;46.908;16.848;2022-07-23T20:14:55;8.00;;;7.30;;
58597;SDS011;60319;46.908;16.848;2022-07-23T20:19:56;8.18;;;7.47;;
58597;SDS011;60319;46.908;16.848;2022-07-23T20:24:57;7.55;;;6.93;;
58597;SDS011;60319;46.908;16.848;2022-07-23T20:29:58;7.88;;;7.13;;
58597;SDS011;60319;46.908;16.848;2022-07-23T20:34:58;8.18;;;7.50;;
58597;SDS011;60319;46.908;16.848;2022-07-23T20:39:59;7.90;;;7.20;;
58597;SDS011;60319;46.908;16.848;2022-07-23T20:44:59;7.43;;;6.72;;
58597;SDS011;60319;46.908;16.848;2022-07-23T20:50:00;6.88;;;6.28;;
58597;SDS011;60319;46.908;16.848;2022-07-23T20:55:00;7.18;;;6.57;;
58597;SDS011;60319;46.908;16.848;2022-07-23T21:00:03;6.75;;;6.20;;
58597;SDS011;60319;46.908;16.848;2022-07-23T21:05:08;7.03;;;6.43;;
58597;SDS011;60319;46.908;16.848;2022-07-23T21:10:09;7.32;;;6.72;;
58597;SDS011;60319;46.908;16.848;2022-07-23T21:15:11;8.02;;;6.57;;
58597;SDS011;60319;46.908;16.848;2022-07-23T21:20:13;7.15;;;6.55;;
58597;SDS011;60319;46.908;16.848;2022-07-23T21:25:15;6.40;;;5.90;;
58597;SDS011;60319;46.908;16.848;2022-07-23T21:30:16;6.00;;;5.50;;
58597;SDS011;60319;46.908;16.848;2022-07-23T21:35:16;6.25;;;5.60;;
58597;SDS011;60319;46.908;16.848;2022-07-23T21:40:17;6.15;;;5.65;;
58597;SDS011;60319;46.908;16.848;2022-07-23T21:45:17;11.75;;;6.63;;
58597;SDS011;60319;46.908;16.848;2022-07-23T21:50:18;6.00;;;5.15;;
58597;SDS011;60319;46.908;16.848;2022-07-23T21:55:18;8.73;;;5.07;;
58597;SDS011;60319;46.908;16.848;2022-07-23T22:00:20;7.90;;;5.25;;
58597;SDS011;60319;46.908;16.848;2022-07-23T22:05:30;5.88;;;4.18;;
58597;SDS011;60319;46.908;16.848;2022-07-23T22:10:31;4.50;;;3.55;;
58597;SDS011;60319;46.908;16.848;2022-07-23T22:15:32;3.80;;;3.45;;
58597;SDS011;60319;46.908;16.848;2022-07-23T22:20:32;3.95;;;2.60;;
58597;SDS011;60319;46.908;16.848;2022-07-23T22:25:33;3.42;;;2.50;;
58597;SDS011;60319;46.908;16.848;2022-07-23T22:30:34;2.90;;;2.17;;
58597;SDS011;60319;46.908;16.848;2022-07-23T22:35:34;2.13;;;1.70;;
58597;SDS011;60319;46.908;16.848;2022-07-23T22:40:35;5.47;;;1.83;;
58597;SDS011;60319;46.908;16.848;2022-07-23T22:45:35;2.38;;;1.55;;
58597;SDS011;60319;46.908;16.848;2022-07-23T22:50:36;2.22;;;1.50;;
58597;SDS011;60319;46.908;16.848;2022-07-23T22:55:36;3.05;;;1.90;;
58597;SDS011;60319;46.908;16.848;2022-07-23T23:00:37;2.85;;;1.92;;
58597;SDS011;60319;46.908;16.848;2022-07-23T23:05:37;2.65;;;1.70;;
58597;SDS011;60319;46.908;16.848;2022-07-23T23:10:38;2.78;;;1.92;;
58597;SDS011;60319;46.908;16.848;2022-07-23T23:15:38;2.10;;;1.90;;
58597;SDS011;60319;46.908;16.848;2022-07-23T23:20:39;2.40;;;2.20;;
58597;SDS011;60319;46.908;16.848;2022-07-23T23:25:39;3.03;;;2.35;;
58597;SDS011;60319;46.908;16.848;2022-07-23T23:30:40;5.32;;;2.85;;
58597;SDS011;60319;46.908;16.848;2022-07-23T23:35:40;3.78;;;2.42;;
58597;SDS011;60319;46.908;16.848;2022-07-23T23:40:40;3.83;;;2.75;;
58597;SDS011;60319;46.908;16.848;2022-07-23T23:45:41;3.47;;;3.00;;
58597;SDS011;60319;46.908;16.848;2022-07-23T23:50:41;3.22;;;2.95;;
58597;SDS011;60319;46.908;16.848;2022-07-23T23:55:42;3.00;;;2.70;;
